Time;durP1;ratioP1;P1;durP2;ratioP2;P2;SDS_P1;SDS_P2;PMS_P1;PMS_P2;Temp;Humidity;BMP_temperature;BMP_pressure;BME280_temperature;BME280_humidity;BME280_pressure;Samples;Min_cycle;Max_cycle;Signal;HPM_P1;HPM_P2
2021/12/28 00:00:04;;;;;;;40.80;24.85;;;6.90;99.90;;;;;;5030142;28;20485;-55
2021/12/28 00:02:29;;;;;;;40.13;25.52;;;6.90;99.90;;;;;;5031043;28;20127;-56
2021/12/28 00:04:55;;;;;;;42.78;26.13;;;6.90;99.90;;;;;;5031909;28;20093;-56
2021/12/28 00:07:20;;;;;;;48.35;27.00;;;6.90;99.90;;;;;;5031920;28;20111;-55
2021/12/28 00:09:46;;;;;;;44.28;27.63;;;6.90;99.90;;;;;;5031635;28;20064;-56
2021/12/28 00:12:11;;;;;;;51.70;29.05;;;7.00;99.90;;;;;;5029064;28;20548;-51
2021/12/28 00:14:41;;;;;;;47.70;29.30;;;7.00;99.90;;;;;;5028980;28;20041;-55
2021/12/28 00:19:51;;;;;;;54.83;32.17;;;7.00;99.90;;;;;;5031757;28;20466;-56
2021/12/28 00:22:16;;;;;;;52.10;28.70;;;7.10;99.90;;;;;;5031352;28;20071;-56
2021/12/28 00:24:43;;;;;;;54.47;29.63;;;7.10;99.90;;;;;;5030308;28;20034;-56
2021/12/28 00:27:08;;;;;;;51.33;31.65;;;7.10;99.90;;;;;;5016525;28;20087;-55
2021/12/28 00:29:34;;;;;;;57.95;32.10;;;7.20;99.90;;;;;;5031529;28;20037;-55
2021/12/28 00:32:00;;;;;;;57.10;33.50;;;7.20;99.90;;;;;;5031413;28;20500;-55
2021/12/28 00:34:26;;;;;;;60.47;32.35;;;7.30;99.90;;;;;;5132474;22;20112;-46
2021/12/28 00:36:51;;;;;;;58.28;31.75;;;7.20;99.90;;;;;;4977609;28;20068;-53
2021/12/28 00:42:59;;;;;;;57.63;32.03;;;7.30;99.90;;;;;;5046025;22;20080;-86
2021/12/28 00:45:25;;;;;;;68.15;33.78;;;7.30;99.90;;;;;;5006520;28;20050;-86
2021/12/28 00:47:51;;;;;;;70.32;33.65;;;7.30;99.90;;;;;;5013198;28;20223;-86
2021/12/28 00:50:18;;;;;;;63.45;32.22;;;7.30;99.90;;;;;;4991658;28;20539;-86
2021/12/28 00:52:44;;;;;;;68.57;32.92;;;7.30;99.90;;;;;;4996972;28;20050;-86
2021/12/28 00:55:12;;;;;;;70.20;33.70;;;7.40;99.90;;;;;;4980361;28;20152;-86
2021/12/28 00:57:37;;;;;;;59.55;29.65;;;7.40;99.90;;;;;;4996112;28;20549;-86
2021/12/28 01:00:06;;;;;;;63.97;33.25;;;7.40;99.90;;;;;;4980509;28;20045;-87
2021/12/28 01:02:32;;;;;;;65.53;33.35;;;7.40;99.90;;;;;;4980068;28;20076;-87
2021/12/28 01:04:57;;;;;;;69.43;33.97;;;7.40;99.90;;;;;;4996751;28;20085;-86
2021/12/28 01:07:23;;;;;;;71.35;34.40;;;7.40;99.90;;;;;;4996644;28;20654;-86
2021/12/28 01:09:48;;;;;;;62.08;31.80;;;7.40;99.90;;;;;;4996771;28;20042;-87
2021/12/28 01:12:14;;;;;;;76.20;34.55;;;7.40;99.90;;;;;;4980482;28;20073;-87
2021/12/28 01:14:40;;;;;;;80.90;35.13;;;7.40;99.90;;;;;;4980307;28;20084;-86
2021/12/28 01:17:06;;;;;;;70.85;32.97;;;7.40;99.90;;;;;;4980402;28;20088;-87
2021/12/28 01:19:32;;;;;;;77.05;33.80;;;7.40;99.90;;;;;;4994696;28;20093;-87
2021/12/28 01:22:01;;;;;;;82.55;34.30;;;7.50;99.90;;;;;;4980224;28;20381;-87
2021/12/28 01:24:27;;;;;;;75.18;34.28;;;7.50;99.90;;;;;;4998812;28;20044;-87
2021/12/28 01:26:53;;;;;;;70.32;31.40;;;7.50;99.90;;;;;;4981634;28;20053;-86
2021/12/28 01:29:19;;;;;;;90.00;35.85;;;7.50;99.90;;;;;;4996144;28;20046;-86
2021/12/28 01:31:44;;;;;;;75.68;35.78;;;7.50;99.90;;;;;;4980262;28;20042;-86
2021/12/28 01:34:10;;;;;;;73.05;33.08;;;7.50;99.90;;;;;;4979605;28;20407;-86
2021/12/28 01:36:35;;;;;;;97.78;36.50;;;7.50;99.90;;;;;;4981854;28;20476;-86
2021/12/28 01:39:04;;;;;;;84.10;35.33;;;7.90;99.90;;;;;;4971535;28;20448;-86
2021/12/28 01:41:30;;;;;;;68.38;34.13;;;7.50;99.90;;;;;;4994047;28;20038;-86
2021/12/28 01:44:02;;;;;;;89.90;34.08;;;7.50;99.90;;;;;;4995936;28;20042;-89
2021/12/28 01:46:28;;;;;;;84.30;34.50;;;7.50;99.90;;;;;;4980003;28;20048;-86
2021/12/28 01:48:54;;;;;;;96.40;35.53;;;7.50;99.90;;;;;;4995666;28;20116;-86
2021/12/28 01:51:22;;;;;;;97.47;35.80;;;7.50;99.90;;;;;;4995994;28;20117;-86
2021/12/28 01:53:49;;;;;;;83.72;35.30;;;7.50;99.90;;;;;;4996251;28;20050;-86
2021/12/28 01:56:30;;;;;;;85.45;33.83;;;7.60;99.90;;;;;;4979606;28;20522;-86
2021/12/28 01:58:57;;;;;;;85.70;34.25;;;7.60;99.90;;;;;;4979675;28;20048;-86
2021/12/28 02:01:25;;;;;;;74.45;31.85;;;7.60;99.90;;;;;;4995776;28;20548;-86
2021/12/28 02:03:51;;;;;;;98.65;35.05;;;7.60;99.90;;;;;;4994699;28;20084;-86
2021/12/28 02:06:17;;;;;;;97.20;35.45;;;7.60;99.90;;;;;;4979567;28;20034;-86
2021/12/28 02:08:43;;;;;;;81.28;34.22;;;7.60;99.90;;;;;;4979472;28;20037;-86
2021/12/28 02:11:10;;;;;;;75.82;33.25;;;7.60;99.90;;;;;;4995434;28;20060;-86
2021/12/28 02:13:37;;;;;;;69.47;32.78;;;7.60;99.90;;;;;;4978758;28;20073;-86
2021/12/28 02:16:02;;;;;;;78.35;33.20;;;7.60;99.90;;;;;;4994931;28;20049;-86
2021/12/28 02:18:30;;;;;;;86.18;32.38;;;7.60;99.90;;;;;;4995131;28;20034;-86
2021/12/28 02:20:57;;;;;;;81.50;33.63;;;7.60;99.90;;;;;;4972289;28;20040;-86
2021/12/28 02:23:23;;;;;;;76.95;30.23;;;7.60;99.90;;;;;;5008152;28;20053;-86
2021/12/28 02:25:49;;;;;;;70.70;30.23;;;7.70;99.90;;;;;;4995798;28;20041;-86
2021/12/28 02:28:15;;;;;;;66.68;30.38;;;7.70;99.90;;;;;;4979738;28;20038;-85
2021/12/28 02:30:45;;;;;;;65.82;31.73;;;7.70;99.90;;;;;;4995654;28;20069;-85
2021/12/28 02:33:11;;;;;;;70.38;30.92;;;7.70;99.90;;;;;;4976558;28;20052;-86
2021/12/28 02:35:37;;;;;;;59.83;30.00;;;7.70;99.90;;;;;;4995615;28;20395;-85
2021/12/28 02:38:06;;;;;;;61.08;30.17;;;7.70;99.90;;;;;;4995883;28;20042;-85
2021/12/28 02:40:33;;;;;;;66.50;30.60;;;7.80;99.90;;;;;;4979332;28;20050;-85
2021/12/28 02:43:02;;;;;;;57.40;26.88;;;7.80;99.90;;;;;;4979334;28;20407;-86
2021/12/28 02:45:31;;;;;;;61.50;27.90;;;7.80;99.90;;;;;;4995215;28;20030;-86
2021/12/28 02:47:57;;;;;;;59.45;28.38;;;7.80;99.90;;;;;;4995315;28;20049;-86
2021/12/28 02:50:43;;;;;;;70.50;30.38;;;7.80;99.90;;;;;;4995373;28;20415;-86
2021/12/28 02:53:11;;;;;;;58.33;28.45;;;7.80;99.90;;;;;;4994654;28;20042;-86
2021/12/28 02:55:39;;;;;;;64.88;27.90;;;7.80;99.90;;;;;;4978891;28;20074;-85
2021/12/28 02:58:11;;;;;;;64.88;27.27;;;7.80;99.90;;;;;;4995087;28;20079;-85
2021/12/28 03:00:45;;;;;;;63.75;28.33;;;7.80;99.90;;;;;;4994868;28;20121;-85
2021/12/28 03:03:17;;;;;;;57.15;27.35;;;7.80;99.90;;;;;;4978376;28;20127;-86
2021/12/28 03:05:45;;;;;;;65.03;28.88;;;7.80;99.90;;;;;;4993449;28;20038;-86
2021/12/28 03:08:13;;;;;;;51.25;25.77;;;7.90;99.90;;;;;;4986151;28;20065;-85
2021/12/28 03:10:41;;;;;;;54.00;24.48;;;7.90;99.90;;;;;;4993796;28;20050;-86
2021/12/28 03:13:08;;;;;;;63.53;27.48;;;7.90;99.90;;;;;;4994113;28;20526;-85
2021/12/28 03:15:34;;;;;;;57.95;26.42;;;7.90;99.90;;;;;;4978399;28;20034;-86
2021/12/28 03:18:00;;;;;;;45.05;23.08;;;7.90;99.90;;;;;;4978533;28;20033;-86
2021/12/28 03:20:26;;;;;;;51.70;25.35;;;8.00;99.90;;;;;;4978622;28;20555;-86
2021/12/28 03:22:51;;;;;;;50.70;23.92;;;8.00;99.90;;;;;;4977650;28;20046;-86
2021/12/28 03:25:17;;;;;;;50.30;24.33;;;7.90;99.90;;;;;;4987353;28;20044;-85
2021/12/28 03:27:43;;;;;;;61.08;25.08;;;7.90;99.90;;;;;;4994198;28;20084;-85
2021/12/28 03:30:13;;;;;;;59.33;24.92;;;7.80;99.90;;;;;;4978179;28;20041;-86
2021/12/28 03:32:39;;;;;;;53.60;25.05;;;7.80;99.90;;;;;;4977924;28;20252;-86
2021/12/28 03:35:07;;;;;;;54.08;25.70;;;7.80;99.90;;;;;;4977525;28;20120;-86
2021/12/28 03:37:34;;;;;;;51.92;26.35;;;7.80;99.90;;;;;;4994462;28;20103;-86
2021/12/28 03:40:00;;;;;;;51.15;24.02;;;7.80;99.90;;;;;;4994576;28;20105;-86
2021/12/28 03:42:26;;;;;;;46.83;23.23;;;7.90;99.90;;;;;;4977896;28;20080;-86
2021/12/28 03:44:52;;;;;;;49.33;23.65;;;7.90;99.90;;;;;;4994028;28;20069;-86
2021/12/28 03:47:18;;;;;;;51.03;24.63;;;7.90;99.90;;;;;;4994261;28;20041;-87
2021/12/28 03:49:44;;;;;;;54.05;26.17;;;7.80;99.90;;;;;;4993576;28;20033;-86
2021/12/28 03:52:10;;;;;;;53.10;24.95;;;7.80;99.90;;;;;;4977771;28;20514;-86
2021/12/28 03:54:36;;;;;;;50.03;25.30;;;7.80;99.90;;;;;;4994160;28;20317;-85
2021/12/28 03:57:02;;;;;;;51.42;24.58;;;7.70;99.90;;;;;;4993989;28;20034;-86
2021/12/28 03:59:29;;;;;;;45.03;25.17;;;7.70;99.90;;;;;;4988027;28;20049;-86
2021/12/28 04:01:55;;;;;;;47.17;24.65;;;7.70;99.90;;;;;;4977720;28;20037;-86
2021/12/28 04:04:21;;;;;;;49.97;25.23;;;7.60;99.90;;;;;;4993823;28;20046;-86
2021/12/28 04:06:47;;;;;;;46.63;24.20;;;7.60;99.90;;;;;;4977244;28;20120;-86
2021/12/28 04:09:19;;;;;;;56.38;26.15;;;7.50;99.90;;;;;;4977828;28;20055;-86
2021/12/28 04:11:45;;;;;;;41.63;23.48;;;7.50;99.90;;;;;;4977703;28;20492;-86
2021/12/28 04:14:11;;;;;;;47.72;24.65;;;7.40;99.90;;;;;;4977527;28;20084;-85
2021/12/28 04:16:36;;;;;;;45.00;23.17;;;7.40;99.90;;;;;;4993701;28;20053;-85
2021/12/28 04:19:04;;;;;;;44.45;23.10;;;7.40;99.90;;;;;;4993980;28;20052;-85
2021/12/28 04:21:30;;;;;;;45.35;22.70;;;7.30;99.90;;;;;;4980969;28;20049;-85
2021/12/28 04:23:56;;;;;;;40.58;22.17;;;7.30;99.90;;;;;;4981462;28;20037;-86
2021/12/28 04:26:22;;;;;;;44.25;22.15;;;7.20;99.90;;;;;;4997162;28;20124;-85
2021/12/28 04:28:48;;;;;;;34.55;21.42;;;7.30;99.90;;;;;;4981596;28;20050;-86
2021/12/28 04:31:13;;;;;;;31.88;17.63;;;7.20;99.90;;;;;;4981365;28;20042;-86
2021/12/28 04:33:40;;;;;;;42.70;20.85;;;7.30;99.90;;;;;;4997279;28;20124;-86
2021/12/28 04:36:10;;;;;;;42.67;20.20;;;7.30;99.90;;;;;;4996986;28;20488;-86
2021/12/28 04:38:37;;;;;;;41.47;20.83;;;7.20;99.90;;;;;;4980937;28;20046;-86
2021/12/28 04:41:03;;;;;;;41.60;20.00;;;7.20;99.90;;;;;;4981015;28;20049;-86
2021/12/28 04:43:29;;;;;;;39.38;19.52;;;7.20;99.90;;;;;;4980413;28;20484;-86
2021/12/28 04:45:55;;;;;;;37.00;20.38;;;7.30;99.90;;;;;;4980969;28;20052;-86
2021/12/28 04:48:21;;;;;;;43.63;20.08;;;7.30;99.90;;;;;;4980971;28;20124;-86
2021/12/28 04:50:46;;;;;;;36.25;19.33;;;7.30;99.90;;;;;;4997562;28;20085;-86
2021/12/28 04:53:13;;;;;;;41.03;19.63;;;7.30;99.90;;;;;;4996447;28;20491;-86
2021/12/28 04:55:45;;;;;;;38.78;18.25;;;7.20;99.90;;;;;;4997206;28;20570;-85
2021/12/28 04:58:11;;;;;;;;;;;7.30;99.90;;;;;;4981378;28;20053;-85
2021/12/28 05:00:38;;;;;;;30.65;17.27;;;7.30;99.90;;;;;;4997554;28;19917;-86
2021/12/28 05:03:05;;;;;;;30.65;17.23;;;7.30;99.90;;;;;;4997724;28;20131;-86
2021/12/28 05:05:31;;;;;;;31.33;16.48;;;7.30;99.90;;;;;;4982473;28;20038;-85
2021/12/28 05:07:57;;;;;;;30.23;15.95;;;7.30;99.90;;;;;;4998083;28;20121;-85
2021/12/28 05:10:23;;;;;;;30.48;16.80;;;7.30;99.90;;;;;;5002011;28;20049;-86
2021/12/28 05:12:50;;;;;;;29.92;15.95;;;7.30;99.90;;;;;;4997583;28;20065;-86
2021/12/28 05:15:17;;;;;;;37.35;16.20;;;7.30;99.90;;;;;;4980634;28;20045;-86
2021/12/28 05:17:43;;;;;;;27.52;13.95;;;7.30;99.90;;;;;;4997187;28;20397;-86
2021/12/28 05:20:08;;;;;;;32.00;15.52;;;7.40;99.90;;;;;;4980721;28;20042;-86
2021/12/28 05:22:35;;;;;;;28.88;15.77;;;7.40;99.90;;;;;;4975897;28;20049;-86
2021/12/28 05:25:00;;;;;;;26.73;13.73;;;7.30;99.90;;;;;;4961368;28;20038;-86
2021/12/28 05:27:26;;;;;;;31.25;13.95;;;7.40;99.90;;;;;;4977209;28;20117;-86
2021/12/28 05:29:52;;;;;;;31.33;13.65;;;7.50;99.90;;;;;;4977251;28;20034;-86
2021/12/28 05:32:17;;;;;;;24.90;12.15;;;7.50;99.90;;;;;;4975758;28;20133;-86
2021/12/28 05:34:43;;;;;;;28.35;13.38;;;7.50;99.90;;;;;;4993219;28;20039;-85
2021/12/28 05:37:09;;;;;;;27.95;13.57;;;7.50;99.90;;;;;;4991378;28;20050;-86
2021/12/28 05:39:35;;;;;;;27.50;12.65;;;7.50;99.90;;;;;;4979987;28;20180;-86
2021/12/28 05:42:02;;;;;;;25.00;11.73;;;7.50;99.90;;;;;;4979701;28;20662;-86
2021/12/28 05:44:27;;;;;;;19.15;9.45;;;7.40;99.90;;;;;;4996157;28;20125;-86
2021/12/28 05:46:54;;;;;;;28.27;11.95;;;7.40;99.90;;;;;;4980165;28;20169;-85
2021/12/28 05:49:20;;;;;;;25.77;11.20;;;7.30;99.90;;;;;;4995865;28;20486;-86
2021/12/28 05:51:46;;;;;;;21.13;10.88;;;7.40;99.90;;;;;;4979438;28;20045;-86
2021/12/28 05:54:12;;;;;;;31.48;11.82;;;7.40;99.90;;;;;;4996214;28;20038;-86
2021/12/28 05:56:38;;;;;;;29.50;11.43;;;7.30;99.90;;;;;;4980257;28;20050;-85
2021/12/28 05:59:04;;;;;;;26.60;11.02;;;7.40;99.90;;;;;;4980054;28;20041;-86
2021/12/28 06:01:30;;;;;;;29.60;12.35;;;7.40;99.90;;;;;;4980278;28;20044;-86
2021/12/28 06:03:56;;;;;;;25.75;11.35;;;7.40;99.90;;;;;;4996454;28;20052;-87
2021/12/28 06:06:21;;;;;;;25.48;12.02;;;7.40;99.90;;;;;;4985735;28;20472;-87
2021/12/28 06:08:47;;;;;;;25.17;10.95;;;7.40;99.90;;;;;;4980598;28;20404;-87
2021/12/28 06:11:13;;;;;;;27.98;11.43;;;7.30;99.90;;;;;;4995446;28;20112;-87
2021/12/28 06:13:40;;;;;;;24.10;11.82;;;7.30;99.90;;;;;;4995740;28;20373;-87
2021/12/28 06:16:07;;;;;;;23.75;11.40;;;7.30;99.90;;;;;;4995753;28;20042;-86
2021/12/28 06:18:33;;;;;;;24.13;11.73;;;7.30;99.90;;;;;;4995065;28;20045;-87
2021/12/28 06:20:59;;;;;;;21.27;11.25;;;7.30;99.90;;;;;;4978814;28;20042;-86
2021/12/28 06:23:25;;;;;;;25.35;11.13;;;7.30;99.90;;;;;;4978998;28;20116;-87
2021/12/28 06:25:50;;;;;;;27.15;10.85;;;7.40;99.90;;;;;;4979137;28;20116;-87
2021/12/28 06:28:16;;;;;;;26.70;11.52;;;7.40;99.90;;;;;;4979356;28;20069;-87
2021/12/28 06:30:42;;;;;;;19.88;9.82;;;7.40;99.90;;;;;;4979390;28;20471;-87
2021/12/28 06:33:07;;;;;;;22.08;10.88;;;7.40;99.90;;;;;;4978633;28;20385;-87
2021/12/28 06:35:33;;;;;;;23.00;10.88;;;7.50;99.90;;;;;;4995042;28;20034;-86
2021/12/28 06:37:59;;;;;;;23.63;8.93;;;7.40;99.90;;;;;;4978769;28;20395;-87
2021/12/28 06:40:26;;;;;;;22.80;9.70;;;7.50;99.90;;;;;;4994570;28;20038;-86
2021/12/28 06:42:51;;;;;;;24.05;10.02;;;7.50;99.90;;;;;;4978153;28;20038;-86
2021/12/28 06:45:17;;;;;;;26.25;9.80;;;7.50;99.90;;;;;;5015336;22;20044;-49
2021/12/28 06:47:43;;;;;;;25.52;10.30;;;7.40;99.90;;;;;;5032904;28;20041;-51
2021/12/28 06:50:09;;;;;;;21.33;9.15;;;7.40;99.90;;;;;;5032619;28;20040;-52
2021/12/28 06:52:35;;;;;;;19.55;9.30;;;7.40;99.90;;;;;;5027079;28;20045;-50
2021/12/28 06:55:01;;;;;;;26.98;10.60;;;7.40;99.90;;;;;;5022492;28;20092;-49
2021/12/28 06:57:27;;;;;;;24.27;9.95;;;7.40;99.90;;;;;;5019970;28;20481;-50
2021/12/28 06:59:52;;;;;;;21.33;8.98;;;7.40;99.90;;;;;;5020960;28;20025;-49
2021/12/28 07:02:18;;;;;;;26.42;9.57;;;7.40;99.90;;;;;;5017578;28;20088;-52
2021/12/28 07:04:45;;;;;;;20.83;9.00;;;7.40;99.90;;;;;;5025399;28;20041;-50
2021/12/28 07:07:11;;;;;;;18.23;8.82;;;7.40;99.90;;;;;;5023930;28;20056;-50
2021/12/28 07:09:38;;;;;;;19.83;9.10;;;7.40;99.90;;;;;;5024119;28;20068;-52
2021/12/28 07:12:04;;;;;;;29.33;9.27;;;7.40;99.90;;;;;;5023220;28;20496;-51
2021/12/28 07:14:30;;;;;;;23.73;8.85;;;7.40;99.90;;;;;;5024064;28;20077;-50
2021/12/28 07:16:56;;;;;;;24.33;8.50;;;7.40;99.90;;;;;;5032460;28;20087;-53
2021/12/28 07:19:23;;;;;;;23.08;9.82;;;7.40;99.90;;;;;;5032110;28;20080;-49
2021/12/28 07:21:49;;;;;;;23.88;9.27;;;7.40;99.90;;;;;;5032124;28;20045;-50
2021/12/28 07:24:14;;;;;;;28.25;8.93;;;7.30;99.90;;;;;;5031952;28;20050;-50
2021/12/28 07:26:40;;;;;;;22.42;9.05;;;7.40;99.90;;;;;;5031251;28;20458;-50
2021/12/28 07:29:06;;;;;;;23.38;8.73;;;7.40;99.90;;;;;;5030162;28;20520;-52
2021/12/28 07:31:33;;;;;;;21.33;7.88;;;7.40;99.90;;;;;;5028548;28;20030;-53
2021/12/28 07:34:00;;;;;;;22.27;8.60;;;7.40;99.90;;;;;;5031808;28;20045;-55
2021/12/28 07:36:25;;;;;;;23.63;8.82;;;7.40;99.90;;;;;;5031779;28;20087;-52
2021/12/28 07:38:51;;;;;;;22.55;8.07;;;7.30;99.90;;;;;;5038289;28;20069;-53
2021/12/28 07:41:17;;;;;;;26.45;8.90;;;7.30;99.90;;;;;;5042370;28;20041;-53
2021/12/28 07:43:43;;;;;;;23.13;8.60;;;7.30;99.90;;;;;;5043184;28;20488;-55
2021/12/28 07:46:08;;;;;;;21.48;8.35;;;7.30;99.90;;;;;;5051564;28;20055;-54
2021/12/28 07:48:34;;;;;;;21.02;8.60;;;7.30;99.90;;;;;;5042135;28;20489;-50
2021/12/28 07:50:59;;;;;;;26.88;8.20;;;7.30;99.90;;;;;;5033892;28;20068;-53
2021/12/28 07:53:25;;;;;;;21.15;8.05;;;7.40;99.90;;;;;;5029270;28;20485;-50
2021/12/28 07:55:51;;;;;;;18.45;7.80;;;7.30;99.90;;;;;;5024023;28;20038;-53
2021/12/28 07:58:16;;;;;;;22.05;8.48;;;7.30;99.90;;;;;;5017861;28;20033;-54
2021/12/28 08:00:42;;;;;;;19.70;7.65;;;7.40;99.90;;;;;;5022838;28;20541;-53
2021/12/28 08:03:08;;;;;;;27.85;9.15;;;7.50;99.90;;;;;;5017045;28;20087;-55
2021/12/28 08:05:35;;;;;;;24.95;7.68;;;7.40;99.90;;;;;;5021594;28;20518;-54
2021/12/28 08:08:01;;;;;;;28.55;8.35;;;7.40;99.90;;;;;;5022940;28;20521;-53
2021/12/28 08:10:28;;;;;;;31.58;7.97;;;7.40;99.90;;;;;;5027360;28;20128;-55
2021/12/28 08:12:56;;;;;;;24.30;6.70;;;7.50;99.90;;;;;;5022456;28;20046;-55
2021/12/28 08:15:26;;;;;;;24.92;8.38;;;7.60;99.90;;;;;;5018172;28;20048;-54
2021/12/28 08:17:52;;;;;;;28.65;8.23;;;7.50;99.90;;;;;;5021940;28;20040;-55
2021/12/28 08:20:18;;;;;;;25.33;7.28;;;7.50;99.90;;;;;;5013372;28;20116;-55
2021/12/28 08:22:46;;;;;;;19.70;5.97;;;7.50;99.90;;;;;;5018211;28;20072;-55
2021/12/28 08:25:14;;;;;;;22.40;8.60;;;7.70;99.90;;;;;;5025357;28;20037;-56
2021/12/28 08:27:40;;;;;;;26.20;7.97;;;7.70;99.90;;;;;;5033544;28;20045;-56
2021/12/28 08:30:07;;;;;;;22.65;7.55;;;7.60;99.90;;;;;;5015203;28;20049;-55
2021/12/28 08:32:33;;;;;;;34.42;7.60;;;7.80;99.90;;;;;;5026762;28;20120;-53
2021/12/28 08:34:59;;;;;;;28.02;8.02;;;7.70;99.90;;;;;;5019166;28;20141;-55
2021/12/28 08:37:24;;;;;;;22.20;6.75;;;7.70;99.90;;;;;;5010512;28;20813;-56
2021/12/28 08:39:50;;;;;;;21.45;7.20;;;7.80;99.90;;;;;;5014651;28;20045;-56
2021/12/28 08:42:16;;;;;;;19.13;6.93;;;7.80;99.90;;;;;;5031442;28;20493;-55
2021/12/28 08:44:42;;;;;;;26.65;7.00;;;7.80;99.90;;;;;;5031200;28;20045;-55
2021/12/28 08:47:08;;;;;;;25.60;6.80;;;7.80;99.90;;;;;;5032356;28;20557;-55
2021/12/28 08:49:34;;;;;;;24.75;6.60;;;7.80;99.90;;;;;;5032346;28;20036;-55
2021/12/28 08:51:59;;;;;;;23.27;6.60;;;7.70;99.90;;;;;;5032083;28;20180;-53
2021/12/28 08:54:25;;;;;;;21.85;6.22;;;7.80;99.90;;;;;;5031397;28;20416;-54
2021/12/28 08:56:51;;;;;;;26.58;7.47;;;7.70;99.90;;;;;;5031752;28;20041;-54
2021/12/28 08:59:18;;;;;;;24.35;7.40;;;7.70;99.90;;;;;;5013952;28;20099;-54
2021/12/28 09:01:44;;;;;;;27.67;6.53;;;7.80;99.90;;;;;;5031651;28;20531;-53
2021/12/28 09:04:10;;;;;;;30.08;7.47;;;7.80;99.90;;;;;;5032117;28;20517;-53
2021/12/28 09:06:35;;;;;;;18.00;6.03;;;7.80;99.90;;;;;;5034546;28;20132;-53
2021/12/28 09:09:02;;;;;;;18.95;6.88;;;7.90;99.90;;;;;;5034683;28;20029;-53
2021/12/28 09:11:28;;;;;;;22.20;6.80;;;7.90;99.90;;;;;;5035244;28;20091;-55
2021/12/28 09:13:53;;;;;;;23.08;7.00;;;7.90;99.90;;;;;;5034754;28;20041;-54
2021/12/28 09:16:19;;;;;;;22.85;7.72;;;7.80;99.90;;;;;;5035067;28;20076;-55
2021/12/28 09:18:45;;;;;;;22.63;7.57;;;7.90;99.90;;;;;;5034108;28;20120;-54
2021/12/28 09:21:11;;;;;;;22.25;7.47;;;7.90;99.90;;;;;;5035064;28;20042;-53
2021/12/28 09:23:38;;;;;;;35.85;8.85;;;7.90;99.90;;;;;;5034291;28;20095;-56
2021/12/28 09:26:05;;;;;;;28.23;8.40;;;7.90;99.90;;;;;;5034586;28;20113;-53
2021/12/28 09:28:30;;;;;;;17.75;8.18;;;7.90;99.90;;;;;;5034704;28;20040;-55
2021/12/28 09:30:56;;;;;;;29.13;8.35;;;8.00;99.90;;;;;;5034324;28;20382;-54
2021/12/28 09:33:21;;;;;;;25.65;9.30;;;7.90;99.90;;;;;;5034160;28;20037;-55
2021/12/28 09:35:47;;;;;;;30.45;8.27;;;8.00;99.90;;;;;;5034175;28;20045;-53
2021/12/28 09:38:13;;;;;;;23.63;7.70;;;8.00;99.90;;;;;;5016998;28;20045;-53
2021/12/28 09:40:39;;;;;;;27.13;8.43;;;8.00;99.90;;;;;;5033382;28;20497;-55
2021/12/28 09:43:07;;;;;;;21.67;6.53;;;7.90;99.90;;;;;;5011814;28;20147;-55
2021/12/28 09:45:34;;;;;;;27.63;7.57;;;8.00;99.90;;;;;;5014245;28;20061;-55
2021/12/28 09:48:00;;;;;;;32.92;8.65;;;8.10;99.90;;;;;;5014369;28;20029;-55
2021/12/28 09:50:27;;;;;;;25.85;8.98;;;8.00;99.90;;;;;;5014399;28;20453;-55
2021/12/28 09:52:53;;;;;;;17.88;8.98;;;8.00;99.90;;;;;;5014167;28;20127;-55
2021/12/28 09:55:23;;;;;;;25.48;9.00;;;8.10;99.90;;;;;;5014412;28;20097;-54
2021/12/28 09:57:50;;;;;;;32.28;9.35;;;8.00;99.90;;;;;;5033491;28;20045;-55
2021/12/28 10:00:18;;;;;;;21.20;8.93;;;8.10;99.90;;;;;;5016191;28;20038;-55
2021/12/28 10:02:44;;;;;;;31.42;10.80;;;8.20;99.90;;;;;;5033686;28;20120;-55
2021/12/28 10:05:18;;;;;;;26.27;9.70;;;8.10;99.90;;;;;;5034066;28;20132;-53
2021/12/28 10:08:04;;;;;;;32.33;10.20;;;8.10;99.90;;;;;;5033827;28;20037;-53
2021/12/28 10:10:32;;;;;;;30.98;10.35;;;8.10;99.90;;;;;;5033299;28;20095;-55
2021/12/28 10:13:00;;;;;;;31.75;10.90;;;8.20;99.90;;;;;;5031037;28;20125;-55
2021/12/28 10:15:30;;;;;;;23.20;10.45;;;8.30;99.90;;;;;;5033642;28;20048;-53
2021/12/28 10:17:58;;;;;;;31.83;11.90;;;8.10;99.90;;;;;;5033100;28;20440;-52
2021/12/28 10:20:39;;;;;;;25.90;11.07;;;8.20;99.90;;;;;;5033693;28;20456;-53
2021/12/28 10:23:10;;;;;;;29.90;11.55;;;8.30;99.90;;;;;;5033351;28;20071;-55
2021/12/28 10:25:44;;;;;;;27.92;10.15;;;8.30;99.90;;;;;;5032043;28;20029;-55
2021/12/28 10:28:13;;;;;;;23.35;10.52;;;8.40;99.90;;;;;;5033607;28;20037;-52
2021/12/28 10:30:43;;;;;;;27.45;10.65;;;8.40;99.90;;;;;;5033670;28;20037;-54
2021/12/28 10:33:15;;;;;;;22.67;10.80;;;8.40;99.90;;;;;;5030601;28;20119;-55
2021/12/28 10:35:50;;;;;;;18.65;9.77;;;8.50;99.90;;;;;;5025192;28;20416;-53
2021/12/28 10:38:19;;;;;;;16.33;9.18;;;8.50;99.90;;;;;;5029313;28;20045;-56
2021/12/28 10:40:51;;;;;;;26.27;11.07;;;8.60;99.90;;;;;;5019442;28;20497;-55
2021/12/28 10:43:19;;;;;;;23.40;12.55;;;8.60;99.90;;;;;;5014836;28;20445;-53
2021/12/28 10:45:48;;;;;;;25.75;12.43;;;8.70;99.90;;;;;;5014523;28;20030;-53
2021/12/28 10:48:19;;;;;;;23.35;10.88;;;8.70;99.90;;;;;;5025599;28;20042;-55
2021/12/28 10:51:01;;;;;;;23.92;12.68;;;8.70;99.90;;;;;;5025254;28;20042;-56
2021/12/28 10:53:38;;;;;;;18.17;9.77;;;8.70;99.90;;;;;;5011806;28;20064;-58
2021/12/28 10:56:06;;;;;;;24.88;12.60;;;8.70;99.90;;;;;;5028032;28;20116;-56
2021/12/28 10:58:45;;;;;;;20.83;12.50;;;8.80;99.90;;;;;;5020431;28;20073;-55
2021/12/28 11:01:22;;;;;;;24.55;12.65;;;8.80;99.90;;;;;;5023467;28;20077;-56
2021/12/28 11:03:50;;;;;;;19.13;11.10;;;8.90;99.90;;;;;;5018287;28;20428;-54
2021/12/28 11:06:17;;;;;;;20.08;10.43;;;8.90;99.90;;;;;;5029652;28;20033;-57
2021/12/28 11:08:48;;;;;;;21.27;11.40;;;8.90;99.90;;;;;;5022299;28;20060;-55
2021/12/28 11:11:16;;;;;;;20.08;10.65;;;8.90;99.90;;;;;;5028258;28;20091;-55
2021/12/28 11:13:42;;;;;;;19.80;10.52;;;8.90;99.90;;;;;;5029363;28;20437;-56
2021/12/28 11:16:10;;;;;;;18.88;10.48;;;8.90;99.90;;;;;;5029353;28;20041;-55
2021/12/28 11:18:40;;;;;;;16.55;9.75;;;8.90;99.90;;;;;;5026097;28;20045;-56
2021/12/28 11:21:39;;;;;;;18.85;10.93;;;9.00;99.90;;;;;;5024639;28;20095;-55
2021/12/28 11:24:10;;;;;;;15.38;9.57;;;9.00;99.90;;;;;;4996303;28;20053;-54
2021/12/28 11:26:42;;;;;;;19.48;10.68;;;8.90;99.90;;;;;;5014078;28;20072;-56
2021/12/28 11:29:13;;;;;;;15.15;9.13;;;8.90;99.90;;;;;;5019407;28;20053;-57
2021/12/28 11:31:43;;;;;;;17.40;9.50;;;8.90;99.90;;;;;;5027892;28;20072;-53
2021/12/28 11:34:33;;;;;;;15.55;8.63;;;9.00;99.90;;;;;;5027923;28;20042;-54
2021/12/28 11:37:19;;;;;;;13.18;7.95;;;8.90;99.90;;;;;;5027189;28;20080;-56
2021/12/28 11:39:48;;;;;;;14.55;7.90;;;9.00;99.90;;;;;;5022427;28;20036;-53
2021/12/28 11:42:16;;;;;;;10.93;7.40;;;9.00;99.90;;;;;;5026943;28;20037;-53
2021/12/28 11:44:42;;;;;;;14.00;8.10;;;9.00;99.90;;;;;;5025955;28;20109;-56
2021/12/28 11:47:10;;;;;;;13.30;8.32;;;9.00;99.90;;;;;;5028925;28;20124;-53
2021/12/28 11:49:37;;;;;;;10.68;6.78;;;9.00;99.90;;;;;;5025008;28;20045;-55
2021/12/28 11:52:08;;;;;;;12.60;7.43;;;9.10;99.90;;;;;;5028363;28;20099;-54
2021/12/28 11:54:37;;;;;;;11.40;6.88;;;9.10;99.90;;;;;;5028514;28;20073;-56
2021/12/28 11:57:09;;;;;;;11.60;8.32;;;9.20;99.90;;;;;;5027274;28;20509;-57
2021/12/28 11:59:35;;;;;;;12.88;8.40;;;9.20;99.90;;;;;;5028198;28;20505;-57
2021/12/28 12:02:12;;;;;;;13.60;7.97;;;9.10;99.90;;;;;;5027671;28;20116;-53
2021/12/28 12:04:45;;;;;;;11.73;7.55;;;9.20;99.90;;;;;;5028597;28;20321;-50
2021/12/28 12:07:14;;;;;;;11.52;7.80;;;9.20;99.90;;;;;;5018947;28;20041;-54
2021/12/28 12:09:48;;;;;;;12.85;7.40;;;9.20;99.90;;;;;;5019365;28;20564;-53
2021/12/28 12:12:23;;;;;;;11.70;6.93;;;9.20;99.90;;;;;;5017852;28;20061;-55
2021/12/28 12:14:55;;;;;;;9.43;6.90;;;9.20;99.90;;;;;;5025608;28;20045;-56
2021/12/28 12:17:43;;;;;;;12.07;6.38;;;9.20;99.90;;;;;;5022354;28;20438;-54
2021/12/28 12:20:15;;;;;;;12.00;7.32;;;9.20;99.90;;;;;;5010191;28;20068;-56
2021/12/28 12:22:50;;;;;;;11.77;6.25;;;9.20;99.90;;;;;;5018651;28;20065;-55
2021/12/28 12:25:45;;;;;;;10.45;7.20;;;9.20;99.90;;;;;;5016877;28;20034;-53
2021/12/28 12:28:18;;;;;;;12.52;6.78;;;9.30;99.90;;;;;;5013737;28;20060;-55
2021/12/28 12:30:49;;;;;;;9.30;6.40;;;9.30;99.90;;;;;;5021512;28;20277;-56
2021/12/28 12:33:17;;;;;;;11.50;7.00;;;9.30;99.90;;;;;;5014925;28;20409;-55
2021/12/28 12:36:00;;;;;;;10.52;6.75;;;9.30;99.90;;;;;;5016030;28;20042;-55
2021/12/28 12:38:25;;;;;;;;;;;9.40;99.90;;;;;;5020950;28;20140;-50
2021/12/28 12:40:53;;;;;;;12.02;6.22;;;9.40;99.90;;;;;;5022538;28;20496;-53
2021/12/28 12:43:20;;;;;;;11.35;5.55;;;9.40;99.90;;;;;;5024302;28;20045;-57
2021/12/28 12:48:35;;;;;;;11.07;7.22;;;9.40;99.90;;;;;;5010523;28;20161;-50
2021/12/28 12:51:19;;;;;;;8.45;6.10;;;9.40;99.90;;;;;;5000325;28;20413;-50